Data for 10/23/2015

Time Sea-Level Adjusted Pressure Absolute Pressure Temperature Relative Humidity Dew Point   
(mb) (inHg) (mb) (inHg) (C) (F) (%) (C) (F)
00:05 1021 30.15 850 25.1 5.3 41.5 67 -0.3 31.4
00:10 1021 30.15 850 25.1 5.3 41.6 67 -0.4 31.4
00:15 1021 30.15 850 25.1 5.3 41.6 67 -0.3 31.4
00:20 1021 30.15 850 25.1 5.3 41.6 67 -0.3 31.4
00:25 1021 30.15 850 25.1 5.3 41.6 66 -0.4 31.2
00:30 1021 30.15 850 25.1 5.5 42 64 -0.6 30.9
00:35 1021 30.15 850 25.1 5.7 42.3 65 -0.3 31.4
00:40 1021 30.15 850 25.1 5.5 41.9 66 -0.4 31.3
00:45 1021 30.15 850 25.1 5.3 41.5 68 -0.2 31.7
00:50 1021 30.15 850 25.1 4.7 40.5 70 -0.3 31.4
00:55 1021 30.15 850 25.1 4.6 40.2 70 -0.4 31.3
01:00 1021 30.15 851 25.13 4.4 39.9 72 -0.2 31.6
01:05 1021 30.15 851 25.13 4 39.2 73 -0.4 31.3
01:10 1021 30.15 851 25.13 4 39.2 72 -0.5 31
01:15 1021 30.15 851 25.13 4.1 39.3 72 -0.6 30.9
01:20 1021 30.15 851 25.13 4.4 40 69 -0.8 30.5
01:25 1021 30.15 851 25.13 4.8 40.6 69 -0.5 31.1
01:30 1021 30.15 851 25.13 4.6 40.4 69 -0.5 31
01:35 1021 30.15 851 25.13 4.5 40.1 70 -0.5 31
01:40 1021 30.15 851 25.13 4.1 39.4 72 -0.5 31.1
01:45 1022 30.18 851 25.13 3.9 39 72 -0.7 30.8
01:50 1022 30.18 851 25.13 3.7 38.7 74 -0.6 31
01:55 1022 30.18 851 25.13 3.5 38.2 74 -0.7 30.8
02:00 1021 30.15 851 25.13 3.5 38.2 74 -0.7 30.7
02:05 1022 30.18 851 25.13 3.4 38.1 75 -0.6 30.9
02:10 1022 30.18 851 25.13 3.3 37.9 75 -0.7 30.7
02:15 1022 30.18 851 25.13 3.4 38.2 73 -0.9 30.4
02:20 1022 30.18 851 25.13 3.7 38.7 73 -0.7 30.7
02:25 1022 30.18 851 25.13 3.8 38.8 73 -0.6 30.9
02:30 1022 30.18 851 25.13 3.7 38.7 73 -0.6 31
02:35 1022 30.18 851 25.13 3.7 38.7 73 -0.7 30.8
02:40 1022 30.18 851 25.13 3.7 38.6 73 -0.7 30.7
02:45 1022 30.18 851 25.13 3.4 38.2 75 -0.6 31
02:50 1022 30.18 851 25.13 3 37.3 77 -0.7 30.8
02:55 1022 30.18 851 25.13 2.9 37.2 77 -0.8 30.6
03:00 1022 30.18 851 25.13 2.8 37 78 -0.7 30.7
03:05 1022 30.18 851 25.13 2.8 37 78 -0.8 30.6
03:10 1022 30.18 851 25.13 2.8 37 78 -0.8 30.6
03:15 1022 30.18 851 25.13 2.6 36.6 79 -0.8 30.6
03:20 1022 30.18 851 25.13 2.3 36.1 80 -0.8 30.5
03:25 1022 30.18 851 25.13 2.1 35.8 81 -0.8 30.5
03:30 1022 30.18 851 25.13 2 35.7 81 -0.9 30.5
03:35 1022 30.18 851 25.13 2.1 35.8 81 -0.8 30.6
03:40 1022 30.18 851 25.13 2.4 36.4 79 -0.9 30.4
03:45 1022 30.18 851 25.13 2.7 36.8 78 -0.8 30.6
03:50 1022 30.18 851 25.13 2.9 37.2 76 -0.9 30.3
03:55 1022 30.18 851 25.13 3 37.3 76 -0.8 30.5
04:00 1022 30.18 851 25.13 2.9 37.1 77 -0.8 30.5
04:05 1022 30.18 851 25.13 2.9 37.2 76 -0.9 30.4
04:10 1022 30.18 851 25.13 3 37.3 76 -0.8 30.5
04:15 1022 30.18 851 25.13 2.7 36.8 78 -0.9 30.5
04:20 1022 30.18 851 25.13 2.5 36.5 78 -0.9 30.3
04:25 1022 30.18 851 25.13 2.2 36 79 -1 30.2
04:30 1022 30.18 851 25.13 2.1 35.7 79 -1.2 29.8
04:35 1022 30.18 852 25.16 1.9 35.4 80 -1.1 29.9
04:40 1022 30.18 852 25.16 1.9 35.4 80 -1.2 29.9
04:45 1022 30.18 852 25.16 1.9 35.5 81 -1.1 30.1
04:50 1022 30.18 852 25.16 1.8 35.3 81 -1.1 30.1
04:55 1022 30.18 852 25.16 2 35.6 80 -1.1 30
05:00 1022 30.18 852 25.16 1.9 35.4 81 -1 30.1
05:05 1022 30.18 852 25.16 2.1 35.8 79 -1.2 29.8
05:10 1023 30.21 852 25.16 2.4 36.2 79 -1 30.2
05:15 1023 30.21 852 25.16 2 35.6 81 -0.8 30.5
05:20 1023 30.21 852 25.16 1.9 35.4 82 -0.9 30.4
05:25 1023 30.21 852 25.16 1.8 35.3 81 -1 30.1
05:30 1023 30.21 852 25.16 1.9 35.4 81 -1.1 30
05:35 1023 30.21 852 25.16 1.8 35.2 81 -1.1 29.9
05:40 1023 30.21 852 25.16 1.9 35.4 80 -1.1 30
05:45 1023 30.21 852 25.16 2.1 35.7 79 -1.2 29.8
05:50 1023 30.21 852 25.16 2.3 36.1 78 -1.2 29.8
05:55 1023 30.21 852 25.16 2.2 36 78 -1.2 29.8
06:00 1023 30.21 852 25.16 2.2 36 78 -1.3 29.7
06:05 1023 30.21 852 25.16 1.9 35.4 80 -1.2 29.9
06:10 1023 30.21 852 25.16 1.7 35.1 80 -1.3 29.6
06:15 1023 30.21 852 25.16 2.1 35.8 78 -1.3 29.6
06:20 1023 30.21 852 25.16 2.1 35.7 79 -1.1 29.9
06:25 1023 30.21 852 25.16 1.9 35.4 80 -1.2 29.8
06:30 1023 30.21 852 25.16 2.1 35.9 79 -1.2 29.8
06:35 1023 30.21 852 25.16 2.3 36.1 78 -1.2 29.9
06:40 1023 30.21 852 25.16 2.5 36.4 77 -1.1 30.1
06:45 1023 30.21 852 25.16 2.9 37.2 76 -1 30.2
06:50 1023 30.21 852 25.16 3 37.5 76 -0.8 30.5
06:55 1023 30.21 852 25.16 2.9 37.3 77 -0.8 30.6
07:00 1023 30.21 852 25.16 3 37.3 76 -0.8 30.5
07:05 1023 30.21 852 25.16 3.4 38.1 73 -1.1 30
07:10 1023 30.21 852 25.16 3.7 38.7 72 -0.8 30.5
07:15 1023 30.21 852 25.16 3.7 38.7 72 -0.8 30.5
07:20 1023 30.21 852 25.16 3.7 38.7 72 -0.9 30.3
07:25 1023 30.21 852 25.16 3.9 39 70 -1 30.2
07:30 1023 30.21 852 25.16 4.2 39.6 69 -0.9 30.4
07:35 1023 30.21 852 25.16 4.4 39.9 70 -0.6 30.9
07:40 1023 30.21 852 25.16 3.9 39.1 71 -0.9 30.4
07:45 1023 30.21 852 25.16 3.6 38.5 73 -0.7 30.7
07:50 1023 30.21 852 25.16 3.3 38 74 -0.9 30.4
07:55 1023 30.21 852 25.16 3.2 37.8 75 -0.8 30.6
08:00 1023 30.21 852 25.16 3.3 38 74 -0.8 30.6
08:05 1023 30.21 852 25.16 3.6 38.4 73 -0.9 30.4
08:10 1023 30.21 852 25.16 3.9 39.1 72 -0.7 30.8
08:15 1023 30.21 852 25.16 3.8 38.9 71 -0.9 30.4
08:20 1023 30.21 852 25.16 3.9 39 71 -0.8 30.5
08:25 1023 30.21 852 25.16 4.5 40 69 -0.6 30.8
08:30 1023 30.21 852 25.16 5.1 41.1 67 -0.6 30.9
08:35 1023 30.21 852 25.16 4.9 40.8 69 -0.2 31.6
08:40 1023 30.21 852 25.16 4.8 40.6 69 -0.4 31.2
08:45 1023 30.21 852 25.16 4.6 40.3 69 -0.5 31.1
08:50 1023 30.21 852 25.16 4.5 40 71 -0.3 31.4
08:55 1023 30.21 852 25.16 4.7 40.5 69 -0.4 31.2
09:00 1023 30.21 852 25.16 5 41 67 -0.7 30.8
09:05 1023 30.21 852 25.16 5.6 42.1 64 -0.6 30.9
09:10 1023 30.21 852 25.16 6 42.8 63 -0.4 31.2
09:15 1023 30.21 852 25.16 6.5 43.6 61 -0.5 31.1
09:20 1023 30.21 852 25.16 6.9 44.4 59 -0.6 30.9
09:25 1023 30.21 852 25.16 7.5 45.6 58 -0.3 31.5
09:30 1023 30.21 852 25.16 7.7 45.8 59 0.1 32.2
09:35 1023 30.21 852 25.16 7.5 45.5 57 -0.4 31.3
09:40 1023 30.21 852 25.16 7.1 44.7 58 -0.6 31
09:45 1023 30.21 852 25.16 7.3 45.2 56 -0.9 30.5
09:50 1023 30.21 852 25.16 8 46.5 55 -0.4 31.2
09:55 1023 30.21 852 25.16 8 46.3 56 -0.3 31.5
10:00 1023 30.21 852 25.16 7.8 46.1 53 -1.1 30
10:05 1023 30.21 852 25.16 8.4 47.1 53 -0.7 30.7
10:10 1023 30.21 852 25.16 8.8 47.8 50 -1 30.2
10:15 1023 30.21 852 25.16 8.9 48 48 -1.4 29.5
10:20 1023 30.21 852 25.16 9.1 48.4 50 -0.7 30.7
10:25 1023 30.21 852 25.16 8.7 47.7 52 -0.5 31.1
10:30 1023 30.21 852 25.16 8.4 47.2 51 -1.1 30
10:35 1023 30.21 852 25.16 9.4 48.9 49 -0.8 30.6
10:40 1023 30.21 852 25.16 9.8 49.6 47 -0.9 30.3
10:45 1023 30.21 852 25.16 10 50 48 -0.4 31.3
10:50 1023 30.21 852 25.16 10 50 48 -0.5 31.1
10:55 1023 30.21 852 25.16 10.3 50.6 47 -0.6 31
11:00 1023 30.21 852 25.16 10.4 50.7 48 -0 32
11:05 1023 30.21 852 25.16 10.2 50.4 46 -0.8 30.6
11:10 1023 30.21 852 25.16 10.5 50.8 47 -0.4 31.3
11:15 1023 30.21 852 25.16 10.3 50.6 48 -0.2 31.6
11:20 1023 30.21 852 25.16 10.6 51 46 -0.5 31.2
11:25 1023 30.21 852 25.16 10.1 50.1 48 -0.4 31.3
11:30 1023 30.21 852 25.16 9.7 49.4 49 -0.4 31.3
11:35 1023 30.21 852 25.16 8.9 48.1 50 -0.9 30.4
11:40 1023 30.21 852 25.16 9.7 49.4 46 -1.4 29.5
11:45 1023 30.21 852 25.16 10.6 51.1 43 -1.4 29.5
11:50 1023 30.21 852 25.16 11.3 52.3 42 -1 30.2
11:55 1023 30.21 852 25.16 11.1 51.9 42 -1.2 29.8
12:00 1023 30.21 852 25.16 11.4 52.4 40 -1.6 29.1
12:05 1023 30.21 852 25.16 11.5 52.8 41 -1.3 29.7
12:10 1023 30.21 852 25.16 11.8 53.2 39 -1.6 29.2
12:15 1023 30.21 852 25.16 11.5 52.7 38 -2.3 27.8
12:20 1022 30.18 852 25.16 11.6 53 39 -2 28.5
12:25 1022 30.18 852 25.16 11.8 53.2 38 -1.9 28.5
12:30 1022 30.18 851 25.13 12 53.6 38 -1.7 28.9
12:35 1022 30.18 851 25.13 12 53.6 38 -2 28.5
12:40 1022 30.18 851 25.13 12.1 53.7 37 -2.2 28
12:45 1022 30.18 851 25.13 12 53.6 38 -1.7 29
12:50 1022 30.18 851 25.13 11.7 53 39 -1.7 28.9
12:55 1022 30.18 851 25.13 12 53.5 37 -2.1 28.2
13:00 1022 30.18 851 25.13 11.2 52.1 41 -1.4 29.4
13:05 1022 30.18 851 25.13 10.9 51.7 40 -2.1 28.2
13:10 1022 30.18 851 25.13 11 51.8 38 -2.6 27.3
13:15 1022 30.18 851 25.13 11.7 53.1 39 -1.8 28.7
13:20 1021 30.15 851 25.13 11.1 51.9 39 -2.4 27.7
13:25 1021 30.15 851 25.13 12.2 54 35 -2.8 26.9
13:30 1021 30.15 851 25.13 12.8 55 36 -1.9 28.6
13:35 1021 30.15 851 25.13 11.5 52.7 37 -2.7 27.1
13:40 1021 30.15 850 25.1 11.9 53.4 36 -2.7 27.2
13:45 1021 30.15 850 25.1 12.5 54.4 34 -2.9 26.8
13:50 1021 30.15 850 25.1 12.5 54.6 36 -2 28.4
13:55 1021 30.15 850 25.1 11.7 53.1 36 -2.8 27
14:00 1021 30.15 850 25.1 12.3 54.1 35 -2.7 27.2
14:05 1021 30.15 850 25.1 12.2 54 37 -2.1 28.2
14:10 1021 30.15 850 25.1 12.3 54.1 36 -2.2 28
14:15 1021 30.15 850 25.1 12.6 54.7 34 -2.7 27.1
14:20 1021 30.15 850 25.1 11.6 52.9 38 -2 28.4
14:25 1021 30.15 850 25.1 12.2 53.9 36 -2.4 27.6
14:30 1021 30.15 850 25.1 12.5 54.5 35 -2.5 27.5
14:35 1021 30.15 850 25.1 12.7 54.8 37 -1.4 29.5
14:40 1021 30.15 850 25.1 12.2 53.9 36 -2.5 27.6
14:45 1021 30.15 850 25.1 11.8 53.2 40 -1.4 29.5
14:50 1021 30.15 850 25.1 10.9 51.6 38 -2.9 26.7
14:55 1021 30.15 850 25.1 11.2 52.2 38 -2.5 27.5
15:00 1021 30.15 850 25.1 12 53.6 34 -3.4 26
15:05 1021 30.15 850 25.1 12.7 54.9 33 -3.2 26.3
15:10 1021 30.15 850 25.1 13.1 55.5 31 -3.4 25.9
15:15 1021 30.15 850 25.1 12.5 54.4 32 -3.5 25.6
15:20 1021 30.15 850 25.1 12.2 54 32 -4 24.8
15:25 1021 30.15 850 25.1 13 55.4 31 -3.5 25.6
15:30 1021 30.15 850 25.1 12.4 54.2 33 -3.5 25.7
15:35 1021 30.15 850 25.1 12.1 53.8 32 -3.9 25
15:40 1021 30.15 850 25.1 11.5 52.8 32 -4.4 24.1
15:45 1021 30.15 850 25.1 12.2 54 32 -3.8 25.2
15:50 1021 30.15 850 25.1 11.7 53.1 33 -4 24.9
15:55 1021 30.15 850 25.1 12 53.7 32 -4.2 24.5
16:00 1021 30.15 850 25.1 12.1 53.7 31 -4.3 24.3
16:05 1021 30.15 850 25.1 11.1 51.9 34 -4.1 24.6
16:10 1021 30.15 850 25.1 11 51.9 33 -4.6 23.7
16:15 1021 30.15 850 25.1 11.3 52.3 33 -4.5 23.9
16:20 1021 30.15 850 25.1 11.7 53 32 -4.5 23.9
16:25 1021 30.15 850 25.1 11.7 53.1 32 -4.4 24.1
16:30 1021 30.15 850 25.1 11.8 53.2 32 -4.4 24.1
16:35 1021 30.15 850 25.1 11.7 53 33 -4 24.8
16:40 1021 30.15 850 25.1 11.5 52.7 33 -4.1 24.5
16:45 1021 30.15 850 25.1 11.3 52.3 33 -4.3 24.3
16:50 1021 30.15 850 25.1 11.1 52 34 -4.1 24.5
16:55 1021 30.15 850 25.1 11.1 51.9 34 -4.1 24.5
17:00 1021 30.15 850 25.1 11 51.8 35 -3.7 25.4
17:05 1021 30.15 850 25.1 10.9 51.6 36 -3.6 25.4
17:10 1021 30.15 850 25.1 10.7 51.3 37 -3.5 25.7
17:15 1021 30.15 850 25.1 10.4 50.7 38 -3.2 26.3
17:20 1021 30.15 850 25.1 10.2 50.3 38 -3.4 25.9
17:25 1021 30.15 850 25.1 10.1 50.1 39 -3 26.5
17:30 1021 30.15 850 25.1 10 50 40 -2.9 26.8
17:35 1021 30.15 850 25.1 10.1 50.1 40 -3 26.6
17:40 1021 30.15 850 25.1 10.1 50.1 39 -3.3 26.1
17:45 1021 30.15 850 25.1 10.1 50.1 40 -2.7 27.1
17:50 1021 30.15 850 25.1 9.6 49.3 48 -1 30.2
17:55 1021 30.15 850 25.1 9 48.3 53 -0 31.9
18:00 1021 30.15 850 25.1 8.7 47.6 55 0.1 32.2
18:05 1021 30.15 850 25.1 8.4 47.2 56 0.2 32.3
18:10 1021 30.15 850 25.1 8.3 47 56 0.1 32.2
18:15 1021 30.15 850 25.1 8.2 46.7 57 0.1 32.2
18:20 1020 30.12 850 25.1 8.1 46.5 57 -0 32
18:25 1021 30.15 850 25.1 8.1 46.5 57 0.1 32.2
18:30 1020 30.12 850 25.1 7.9 46.2 58 0.3 32.5
18:35 1021 30.15 850 25.1 7.6 45.6 59 0.1 32.2
18:40 1021 30.15 850 25.1 7.4 45.3 59 0 32.1
18:45 1021 30.15 850 25.1 7.3 45.2 59 -0.2 31.7
18:50 1021 30.15 850 25.1 7.3 45.2 59 -0.1 31.8
18:55 1021 30.15 850 25.1 7.3 45.1 60 -0 32
19:00 1021 30.15 850 25.1 7.2 44.9 61 0.2 32.3
19:05 1021 30.15 850 25.1 7 44.6 62 0.3 32.6
19:10 1021 30.15 850 25.1 6.8 44.3 62 0 32.1
19:15 1021 30.15 850 25.1 6.7 44.1 62 -0 32
19:20 1021 30.15 850 25.1 6.7 44.1 60 -0.4 31.3
19:25 1021 30.15 850 25.1 6.8 44.2 59 -0.6 30.9
19:30 1021 30.15 850 25.1 6.7 44.1 59 -0.6 30.8
19:35 1021 30.15 850 25.1 6.7 44.1 59 -0.7 30.8
19:40 1021 30.15 850 25.1 6.6 43.9 59 -0.7 30.7
19:45 1021 30.15 850 25.1 6.6 43.9 58 -1 30.2
19:50 1021 30.15 850 25.1 6.7 44.1 57 -1.1 30
19:55 1021 30.15 850 25.1 6.8 44.3 56 -1.2 29.8
20:00 1021 30.15 850 25.1 6.7 44 58 -1 30.2
20:05 1021 30.15 850 25.1 6.5 43.8 55 -1.7 28.9
20:10 1021 30.15 850 25.1 6.7 44 56 -1.4 29.5
20:15 1021 30.15 850 25.1 6.7 44 56 -1.4 29.4
20:20 1021 30.15 850 25.1 6.7 44.1 56 -1.4 29.5
20:25 1021 30.15 850 25.1 6.8 44.2 55 -1.7 28.9
20:30 1021 30.15 850 25.1 6.7 44 56 -1.5 29.3
20:35 1021 30.15 850 25.1 6.6 43.8 55 -1.8 28.7
20:40 1021 30.15 850 25.1 6.4 43.6 54 -2.1 28.3
20:45 1021 30.15 850 25.1 6.3 43.3 54 -2.4 27.6
20:50 1021 30.15 850 25.1 6.1 42.9 57 -1.7 28.9
20:55 1021 30.15 850 25.1 5.7 42.2 58 -1.9 28.5
21:00 1021 30.15 850 25.1 5.4 41.7 61 -1.6 29.2
21:05 1021 30.15 850 25.1 5.1 41.1 59 -2.3 27.9
21:10 1021 30.15 850 25.1 5.1 41.2 58 -2.3 27.8
21:15 1021 30.15 850 25.1 5.1 41.2 59 -2.1 28.2
21:20 1021 30.15 850 25.1 5.1 41.3 56 -2.9 26.8
21:25 1021 30.15 850 25.1 5.4 41.8 54 -3.2 26.3
21:30 1021 30.15 850 25.1 5.6 42.1 53 -3.3 26.1
21:35 1021 30.15 850 25.1 5.6 42 53 -3.2 26.3
21:40 1021 30.15 850 25.1 5.4 41.7 54 -3.2 26.3
21:45 1021 30.15 850 25.1 5 41.1 56 -3 26.6
21:50 1021 30.15 850 25.1 4.6 40.2 58 -2.9 26.8
21:55 1021 30.15 850 25.1 4.3 39.7 58 -3.2 26.2
22:00 1021 30.15 850 25.1 4.3 39.7 56 -3.6 25.5
22:05 1021 30.15 850 25.1 4.5 40.1 56 -3.5 25.7
22:10 1021 30.15 850 25.1 4.5 40.1 55 -3.8 25.2
22:15 1021 30.15 850 25.1 4.4 39.9 58 -3.2 26.2
22:20 1021 30.15 850 25.1 3.8 38.8 60 -3.4 25.9
22:25 1021 30.15 850 25.1 3.8 38.9 57 -3.9 25
22:30 1021 30.15 850 25.1 4 39.2 57 -3.7 25.4
22:35 1021 30.15 850 25.1 4 39.1 57 -3.8 25.1
22:40 1021 30.15 850 25.1 3.9 39.1 57 -3.8 25.1
22:45 1021 30.15 850 25.1 3.8 38.9 57 -3.9 25
22:50 1021 30.15 850 25.1 3.7 38.7 57 -4.1 24.5
22:55 1021 30.15 850 25.1 3.7 38.7 57 -3.9 24.9
23:00 1021 30.15 850 25.1 3.4 38.1 59 -3.8 25.1
23:05 1021 30.15 850 25.1 3 37.4 59 -4.2 24.5
23:10 1021 30.15 850 25.1 3 37.4 58 -4.4 24
23:15 1021 30.15 850 25.1 3.4 38 56 -4.6 23.7
23:20 1021 30.15 850 25.1 3.7 38.7 53 -5 23
23:25 1021 30.15 850 25.1 4 39.2 52 -4.9 23.2
23:30 1021 30.15 850 25.1 3.9 39 54 -4.5 24
23:35 1021 30.15 850 25.1 3.3 37.9 57 -4.5 23.8
23:40 1021 30.15 850 25.1 3 37.3 57 -4.7 23.5
23:45 1021 30.15 850 25.1 2.6 36.6 60 -4.4 24
23:50 1021 30.15 850 25.1 2.1 35.9 61 -4.5 23.8
23:55 1021 30.15 850 25.1 2.3 36.2 57 -5.3 22.5
24:00 1021 30.15 850 25.1 3 37.4 55 -5.1 22.8